sensor_id;sensor_type;location;lat;lon;timestamp;temperature;humidity
23405;DHT22;11875;49.356;2.718;2023-05-07T00:01:24;17.00;99.90
23405;DHT22;11875;49.356;2.718;2023-05-07T00:03:50;17.10;99.90
23405;DHT22;11875;49.356;2.718;2023-05-07T00:06:15;17.10;99.90
23405;DHT22;11875;49.356;2.718;2023-05-07T00:08:41;17.10;99.90
23405;DHT22;11875;49.356;2.718;2023-05-07T00:11:06;17.10;99.90
23405;DHT22;11875;49.356;2.718;2023-05-07T00:13:32;17.00;99.90
23405;DHT22;11875;49.356;2.718;2023-05-07T00:16:01;16.90;99.90
23405;DHT22;11875;49.356;2.718;2023-05-07T00:18:27;16.50;99.90
23405;DHT22;11875;49.356;2.718;2023-05-07T00:20:53;16.30;99.90
23405;DHT22;11875;49.356;2.718;2023-05-07T00:23:18;16.40;99.90
23405;DHT22;11875;49.356;2.718;2023-05-07T00:25:44;16.40;99.90
23405;DHT22;11875;49.356;2.718;2023-05-07T00:28:10;16.40;99.90
23405;DHT22;11875;49.356;2.718;2023-05-07T00:30:35;16.50;99.90
23405;DHT22;11875;49.356;2.718;2023-05-07T00:33:01;16.60;99.90
23405;DHT22;11875;49.356;2.718;2023-05-07T00:35:28;16.70;99.90
23405;DHT22;11875;49.356;2.718;2023-05-07T00:37:54;16.80;99.90
23405;DHT22;11875;49.356;2.718;2023-05-07T00:40:19;16.80;99.90
23405;DHT22;11875;49.356;2.718;2023-05-07T00:42:45;16.70;99.90
23405;DHT22;11875;49.356;2.718;2023-05-07T00:45:13;16.60;99.90
23405;DHT22;11875;49.356;2.718;2023-05-07T00:47:39;16.60;99.90
23405;DHT22;11875;49.356;2.718;2023-05-07T00:50:05;16.60;99.90
23405;DHT22;11875;49.356;2.718;2023-05-07T00:52:31;16.70;99.90
23405;DHT22;11875;49.356;2.718;2023-05-07T00:54:57;16.70;99.90
23405;DHT22;11875;49.356;2.718;2023-05-07T00:57:24;16.60;99.90
23405;DHT22;11875;49.356;2.718;2023-05-07T00:59:51;16.60;99.90
23405;DHT22;11875;49.356;2.718;2023-05-07T01:02:17;16.60;99.90
23405;DHT22;11875;49.356;2.718;2023-05-07T01:04:43;16.60;99.90
23405;DHT22;11875;49.356;2.718;2023-05-07T01:07:08;16.60;99.90
23405;DHT22;11875;49.356;2.718;2023-05-07T01:09:35;16.60;99.90
23405;DHT22;11875;49.356;2.718;2023-05-07T01:12:01;16.70;99.90
23405;DHT22;11875;49.356;2.718;2023-05-07T01:14:27;16.70;99.90
23405;DHT22;11875;49.356;2.718;2023-05-07T01:16:53;16.60;99.90
23405;DHT22;11875;49.356;2.718;2023-05-07T01:19:19;16.60;99.90
23405;DHT22;11875;49.356;2.718;2023-05-07T01:21:47;16.40;99.90
23405;DHT22;11875;49.356;2.718;2023-05-07T01:24:14;16.40;99.90
23405;DHT22;11875;49.356;2.718;2023-05-07T01:26:40;16.40;99.90
23405;DHT22;11875;49.356;2.718;2023-05-07T01:29:06;16.30;99.90
23405;DHT22;11875;49.356;2.718;2023-05-07T01:31:33;16.30;99.90
23405;DHT22;11875;49.356;2.718;2023-05-07T01:34:01;16.40;99.90
23405;DHT22;11875;49.356;2.718;2023-05-07T01:36:28;16.50;99.90
23405;DHT22;11875;49.356;2.718;2023-05-07T01:38:54;16.40;99.90
23405;DHT22;11875;49.356;2.718;2023-05-07T01:41:23;16.40;99.90
23405;DHT22;11875;49.356;2.718;2023-05-07T01:43:50;16.40;99.90
23405;DHT22;11875;49.356;2.718;2023-05-07T01:46:17;16.40;99.90
23405;DHT22;11875;49.356;2.718;2023-05-07T01:48:44;16.40;99.90
23405;DHT22;11875;49.356;2.718;2023-05-07T01:51:11;16.50;99.90
23405;DHT22;11875;49.356;2.718;2023-05-07T01:53:38;16.40;99.90
23405;DHT22;11875;49.356;2.718;2023-05-07T01:56:04;16.40;99.90
23405;DHT22;11875;49.356;2.718;2023-05-07T01:58:30;16.40;99.90
23405;DHT22;11875;49.356;2.718;2023-05-07T02:00:57;16.50;99.90
23405;DHT22;11875;49.356;2.718;2023-05-07T02:03:22;16.40;99.90
23405;DHT22;11875;49.356;2.718;2023-05-07T02:05:48;16.30;99.90
23405;DHT22;11875;49.356;2.718;2023-05-07T02:08:13;16.20;99.90
23405;DHT22;11875;49.356;2.718;2023-05-07T02:10:39;16.20;99.90
23405;DHT22;11875;49.356;2.718;2023-05-07T02:13:05;16.10;99.90
23405;DHT22;11875;49.356;2.718;2023-05-07T02:15:30;16.00;99.90
23405;DHT22;11875;49.356;2.718;2023-05-07T02:18:04;16.00;99.90
23405;DHT22;11875;49.356;2.718;2023-05-07T02:20:31;16.20;99.90
23405;DHT22;11875;49.356;2.718;2023-05-07T02:22:57;16.30;99.90
23405;DHT22;11875;49.356;2.718;2023-05-07T02:25:23;16.50;99.90
23405;DHT22;11875;49.356;2.718;2023-05-07T02:27:48;16.50;99.90
23405;DHT22;11875;49.356;2.718;2023-05-07T02:30:14;16.70;99.90
23405;DHT22;11875;49.356;2.718;2023-05-07T02:32:40;16.80;99.90
23405;DHT22;11875;49.356;2.718;2023-05-07T02:35:06;16.90;99.90
23405;DHT22;11875;49.356;2.718;2023-05-07T02:37:31;16.90;99.90
23405;DHT22;11875;49.356;2.718;2023-05-07T02:39:57;16.90;99.90
23405;DHT22;11875;49.356;2.718;2023-05-07T02:42:22;16.90;99.90
23405;DHT22;11875;49.356;2.718;2023-05-07T02:44:48;16.90;99.90
23405;DHT22;11875;49.356;2.718;2023-05-07T02:47:15;16.90;99.90
23405;DHT22;11875;49.356;2.718;2023-05-07T02:49:41;16.90;99.90
23405;DHT22;11875;49.356;2.718;2023-05-07T02:52:06;16.90;99.90
23405;DHT22;11875;49.356;2.718;2023-05-07T02:54:32;16.80;99.90
23405;DHT22;11875;49.356;2.718;2023-05-07T02:56:58;16.80;99.90
23405;DHT22;11875;49.356;2.718;2023-05-07T02:59:23;16.80;99.90
23405;DHT22;11875;49.356;2.718;2023-05-07T03:01:50;16.70;99.90
23405;DHT22;11875;49.356;2.718;2023-05-07T03:04:16;16.70;99.90
23405;DHT22;11875;49.356;2.718;2023-05-07T03:06:41;16.60;99.90
23405;DHT22;11875;49.356;2.718;2023-05-07T03:09:07;16.70;99.90
23405;DHT22;11875;49.356;2.718;2023-05-07T03:11:33;16.80;99.90
23405;DHT22;11875;49.356;2.718;2023-05-07T03:13:58;16.80;99.90
23405;DHT22;11875;49.356;2.718;2023-05-07T03:16:24;16.90;99.90
23405;DHT22;11875;49.356;2.718;2023-05-07T03:18:49;16.90;99.90
23405;DHT22;11875;49.356;2.718;2023-05-07T03:21:15;16.90;99.90
23405;DHT22;11875;49.356;2.718;2023-05-07T03:23:40;16.90;99.90
23405;DHT22;11875;49.356;2.718;2023-05-07T03:26:06;16.90;99.90
23405;DHT22;11875;49.356;2.718;2023-05-07T03:28:32;17.00;99.90
23405;DHT22;11875;49.356;2.718;2023-05-07T03:30:57;17.00;99.90
23405;DHT22;11875;49.356;2.718;2023-05-07T03:33:23;17.00;99.90
23405;DHT22;11875;49.356;2.718;2023-05-07T03:35:49;16.90;99.90
23405;DHT22;11875;49.356;2.718;2023-05-07T03:38:14;16.90;99.90
23405;DHT22;11875;49.356;2.718;2023-05-07T03:40:40;16.80;99.90
23405;DHT22;11875;49.356;2.718;2023-05-07T03:43:06;16.80;99.90
23405;DHT22;11875;49.356;2.718;2023-05-07T03:45:31;16.70;99.90
23405;DHT22;11875;49.356;2.718;2023-05-07T03:47:57;16.80;99.90
23405;DHT22;11875;49.356;2.718;2023-05-07T03:50:22;16.80;99.90
23405;DHT22;11875;49.356;2.718;2023-05-07T03:52:48;16.80;99.90
23405;DHT22;11875;49.356;2.718;2023-05-07T03:55:13;16.90;99.90
23405;DHT22;11875;49.356;2.718;2023-05-07T03:57:39;16.90;99.90
23405;DHT22;11875;49.356;2.718;2023-05-07T04:00:05;17.00;99.90
23405;DHT22;11875;49.356;2.718;2023-05-07T04:02:32;17.00;99.90
23405;DHT22;11875;49.356;2.718;2023-05-07T04:04:58;17.00;99.90
23405;DHT22;11875;49.356;2.718;2023-05-07T04:07:24;17.00;99.90
23405;DHT22;11875;49.356;2.718;2023-05-07T04:09:49;17.00;99.90
23405;DHT22;11875;49.356;2.718;2023-05-07T04:12:15;17.00;99.90
23405;DHT22;11875;49.356;2.718;2023-05-07T04:14:41;17.00;99.90
23405;DHT22;11875;49.356;2.718;2023-05-07T04:17:06;16.90;99.90
23405;DHT22;11875;49.356;2.718;2023-05-07T04:19:33;16.90;99.90
23405;DHT22;11875;49.356;2.718;2023-05-07T04:21:59;16.90;99.90
23405;DHT22;11875;49.356;2.718;2023-05-07T04:24:24;16.80;99.90
23405;DHT22;11875;49.356;2.718;2023-05-07T04:26:50;16.80;99.90
23405;DHT22;11875;49.356;2.718;2023-05-07T04:29:16;16.80;99.90
23405;DHT22;11875;49.356;2.718;2023-05-07T04:31:42;16.80;99.90
23405;DHT22;11875;49.356;2.718;2023-05-07T04:34:10;16.80;99.90
23405;DHT22;11875;49.356;2.718;2023-05-07T04:36:39;16.80;99.90
23405;DHT22;11875;49.356;2.718;2023-05-07T04:39:05;16.80;99.90
23405;DHT22;11875;49.356;2.718;2023-05-07T04:41:31;16.80;99.90
23405;DHT22;11875;49.356;2.718;2023-05-07T04:43:57;16.80;99.90
23405;DHT22;11875;49.356;2.718;2023-05-07T04:46:24;16.80;99.90
23405;DHT22;11875;49.356;2.718;2023-05-07T04:48:51;16.80;99.90
23405;DHT22;11875;49.356;2.718;2023-05-07T04:51:16;16.80;99.90
23405;DHT22;11875;49.356;2.718;2023-05-07T04:53:42;16.80;99.90
23405;DHT22;11875;49.356;2.718;2023-05-07T04:56:08;16.80;99.90
23405;DHT22;11875;49.356;2.718;2023-05-07T04:58:34;16.70;99.90
23405;DHT22;11875;49.356;2.718;2023-05-07T05:01:00;16.70;99.90
23405;DHT22;11875;49.356;2.718;2023-05-07T05:03:25;16.70;99.90
23405;DHT22;11875;49.356;2.718;2023-05-07T05:05:51;16.70;99.90
23405;DHT22;11875;49.356;2.718;2023-05-07T05:08:18;16.70;99.90
23405;DHT22;11875;49.356;2.718;2023-05-07T05:10:44;16.70;99.90
23405;DHT22;11875;49.356;2.718;2023-05-07T05:13:09;16.70;99.90
23405;DHT22;11875;49.356;2.718;2023-05-07T05:15:38;16.70;99.90
23405;DHT22;11875;49.356;2.718;2023-05-07T05:18:03;16.70;99.90
23405;DHT22;11875;49.356;2.718;2023-05-07T05:20:29;16.70;99.90
23405;DHT22;11875;49.356;2.718;2023-05-07T05:22:55;16.70;99.90
23405;DHT22;11875;49.356;2.718;2023-05-07T05:25:21;16.70;99.90
23405;DHT22;11875;49.356;2.718;2023-05-07T05:27:46;16.70;99.90
23405;DHT22;11875;49.356;2.718;2023-05-07T05:30:12;16.70;99.90
23405;DHT22;11875;49.356;2.718;2023-05-07T05:32:38;16.70;99.90
23405;DHT22;11875;49.356;2.718;2023-05-07T05:35:04;16.70;99.90
23405;DHT22;11875;49.356;2.718;2023-05-07T05:37:30;16.70;99.90
23405;DHT22;11875;49.356;2.718;2023-05-07T05:39:56;16.60;99.90
23405;DHT22;11875;49.356;2.718;2023-05-07T05:42:22;16.70;99.90
23405;DHT22;11875;49.356;2.718;2023-05-07T05:44:48;16.70;99.90
23405;DHT22;11875;49.356;2.718;2023-05-07T05:47:14;16.70;99.90
23405;DHT22;11875;49.356;2.718;2023-05-07T05:49:39;16.70;99.90
23405;DHT22;11875;49.356;2.718;2023-05-07T05:52:05;16.80;99.90
23405;DHT22;11875;49.356;2.718;2023-05-07T05:54:31;16.80;99.90
23405;DHT22;11875;49.356;2.718;2023-05-07T05:56:56;16.90;99.90
23405;DHT22;11875;49.356;2.718;2023-05-07T05:59:22;16.90;99.90
23405;DHT22;11875;49.356;2.718;2023-05-07T06:01:48;16.90;99.90
23405;DHT22;11875;49.356;2.718;2023-05-07T06:04:13;16.80;99.90
23405;DHT22;11875;49.356;2.718;2023-05-07T06:06:39;16.80;99.90
23405;DHT22;11875;49.356;2.718;2023-05-07T06:09:04;16.70;99.90
23405;DHT22;11875;49.356;2.718;2023-05-07T06:11:31;16.70;99.90
23405;DHT22;11875;49.356;2.718;2023-05-07T06:13:57;16.60;99.90
23405;DHT22;11875;49.356;2.718;2023-05-07T06:16:24;16.60;99.90
23405;DHT22;11875;49.356;2.718;2023-05-07T06:18:49;16.60;99.90
23405;DHT22;11875;49.356;2.718;2023-05-07T06:21:15;16.70;99.90
23405;DHT22;11875;49.356;2.718;2023-05-07T06:23:41;16.70;99.90
23405;DHT22;11875;49.356;2.718;2023-05-07T06:26:06;16.70;99.90
23405;DHT22;11875;49.356;2.718;2023-05-07T06:28:32;16.70;99.90
23405;DHT22;11875;49.356;2.718;2023-05-07T06:31:18;16.80;99.90
23405;DHT22;11875;49.356;2.718;2023-05-07T06:33:46;16.80;99.90
23405;DHT22;11875;49.356;2.718;2023-05-07T06:36:11;16.80;99.90
23405;DHT22;11875;49.356;2.718;2023-05-07T06:38:37;16.80;99.90
23405;DHT22;11875;49.356;2.718;2023-05-07T06:41:03;16.80;99.90
23405;DHT22;11875;49.356;2.718;2023-05-07T06:43:28;16.70;99.90
23405;DHT22;11875;49.356;2.718;2023-05-07T06:45:54;16.60;99.90
23405;DHT22;11875;49.356;2.718;2023-05-07T06:48:20;16.60;99.90
23405;DHT22;11875;49.356;2.718;2023-05-07T06:50:45;16.60;99.90
23405;DHT22;11875;49.356;2.718;2023-05-07T06:53:11;16.70;99.90
23405;DHT22;11875;49.356;2.718;2023-05-07T06:55:37;16.70;99.90
23405;DHT22;11875;49.356;2.718;2023-05-07T06:58:03;16.70;99.90
23405;DHT22;11875;49.356;2.718;2023-05-07T07:00:29;16.60;99.90
23405;DHT22;11875;49.356;2.718;2023-05-07T07:02:56;16.60;99.90
23405;DHT22;11875;49.356;2.718;2023-05-07T07:05:22;16.70;99.90
23405;DHT22;11875;49.356;2.718;2023-05-07T07:07:47;16.70;99.90
23405;DHT22;11875;49.356;2.718;2023-05-07T07:10:23;16.70;99.90
23405;DHT22;11875;49.356;2.718;2023-05-07T07:12:49;16.70;99.90
23405;DHT22;11875;49.356;2.718;2023-05-07T07:15:15;16.90;99.90
23405;DHT22;11875;49.356;2.718;2023-05-07T07:17:41;16.90;99.90
23405;DHT22;11875;49.356;2.718;2023-05-07T07:20:07;16.90;99.90
23405;DHT22;11875;49.356;2.718;2023-05-07T07:22:33;16.90;99.90
23405;DHT22;11875;49.356;2.718;2023-05-07T07:24:58;17.00;99.90
23405;DHT22;11875;49.356;2.718;2023-05-07T07:27:24;17.00;99.90
23405;DHT22;11875;49.356;2.718;2023-05-07T07:29:50;17.10;99.90
23405;DHT22;11875;49.356;2.718;2023-05-07T07:32:16;17.10;99.90
23405;DHT22;11875;49.356;2.718;2023-05-07T07:34:41;17.10;99.90
23405;DHT22;11875;49.356;2.718;2023-05-07T07:37:07;17.10;99.90
23405;DHT22;11875;49.356;2.718;2023-05-07T07:39:33;17.10;99.90
23405;DHT22;11875;49.356;2.718;2023-05-07T07:41:59;17.10;99.90
23405;DHT22;11875;49.356;2.718;2023-05-07T07:44:25;17.00;99.90
23405;DHT22;11875;49.356;2.718;2023-05-07T07:46:51;17.00;99.90
23405;DHT22;11875;49.356;2.718;2023-05-07T07:49:17;17.10;99.90
23405;DHT22;11875;49.356;2.718;2023-05-07T07:51:42;17.10;99.90
23405;DHT22;11875;49.356;2.718;2023-05-07T07:54:08;17.10;99.90
23405;DHT22;11875;49.356;2.718;2023-05-07T07:56:34;17.20;99.90
23405;DHT22;11875;49.356;2.718;2023-05-07T07:59:00;17.30;99.90
23405;DHT22;11875;49.356;2.718;2023-05-07T08:01:26;17.40;99.90
23405;DHT22;11875;49.356;2.718;2023-05-07T08:03:52;17.40;99.90
23405;DHT22;11875;49.356;2.718;2023-05-07T08:06:17;17.50;99.90
23405;DHT22;11875;49.356;2.718;2023-05-07T08:08:43;17.60;99.90
23405;DHT22;11875;49.356;2.718;2023-05-07T08:11:09;17.50;99.90
23405;DHT22;11875;49.356;2.718;2023-05-07T08:13:35;17.50;99.90
23405;DHT22;11875;49.356;2.718;2023-05-07T08:16:01;17.50;99.90
23405;DHT22;11875;49.356;2.718;2023-05-07T08:18:26;17.50;99.90
23405;DHT22;11875;49.356;2.718;2023-05-07T08:20:54;17.50;99.90
23405;DHT22;11875;49.356;2.718;2023-05-07T08:23:20;17.60;99.90
23405;DHT22;11875;49.356;2.718;2023-05-07T08:25:45;17.60;99.90
23405;DHT22;11875;49.356;2.718;2023-05-07T08:28:11;17.50;99.90
23405;DHT22;11875;49.356;2.718;2023-05-07T08:30:37;17.50;99.90
23405;DHT22;11875;49.356;2.718;2023-05-07T08:33:02;17.50;99.90
23405;DHT22;11875;49.356;2.718;2023-05-07T08:35:28;17.60;99.90
23405;DHT22;11875;49.356;2.718;2023-05-07T08:37:54;17.80;99.90
23405;DHT22;11875;49.356;2.718;2023-05-07T08:40:22;17.90;99.90
23405;DHT22;11875;49.356;2.718;2023-05-07T08:42:52;18.00;99.90
23405;DHT22;11875;49.356;2.718;2023-05-07T08:45:19;18.00;99.90
23405;DHT22;11875;49.356;2.718;2023-05-07T08:47:49;18.10;99.90
23405;DHT22;11875;49.356;2.718;2023-05-07T08:50:16;18.00;99.90
23405;DHT22;11875;49.356;2.718;2023-05-07T08:52:42;18.10;99.90
23405;DHT22;11875;49.356;2.718;2023-05-07T08:55:08;18.20;99.90
23405;DHT22;11875;49.356;2.718;2023-05-07T08:57:34;18.20;99.90
23405;DHT22;11875;49.356;2.718;2023-05-07T09:00:01;18.10;99.90
23405;DHT22;11875;49.356;2.718;2023-05-07T09:02:26;18.20;99.90
23405;DHT22;11875;49.356;2.718;2023-05-07T09:04:52;18.30;99.90
23405;DHT22;11875;49.356;2.718;2023-05-07T09:07:19;18.20;99.90
23405;DHT22;11875;49.356;2.718;2023-05-07T09:09:45;18.20;99.90
23405;DHT22;11875;49.356;2.718;2023-05-07T09:12:11;18.30;99.90
23405;DHT22;11875;49.356;2.718;2023-05-07T09:14:38;18.40;99.90
23405;DHT22;11875;49.356;2.718;2023-05-07T09:17:04;18.50;99.90
23405;DHT22;11875;49.356;2.718;2023-05-07T09:19:30;18.60;99.90
23405;DHT22;11875;49.356;2.718;2023-05-07T09:22:03;18.70;99.90
23405;DHT22;11875;49.356;2.718;2023-05-07T09:24:30;18.60;99.90
23405;DHT22;11875;49.356;2.718;2023-05-07T09:27:03;18.70;99.90
23405;DHT22;11875;49.356;2.718;2023-05-07T09:29:29;18.70;99.90
23405;DHT22;11875;49.356;2.718;2023-05-07T09:31:55;18.70;99.90
23405;DHT22;11875;49.356;2.718;2023-05-07T09:34:21;18.70;99.90
23405;DHT22;11875;49.356;2.718;2023-05-07T09:36:47;18.70;99.90
23405;DHT22;11875;49.356;2.718;2023-05-07T09:39:13;18.60;99.90
23405;DHT22;11875;49.356;2.718;2023-05-07T09:41:46;18.50;99.90
23405;DHT22;11875;49.356;2.718;2023-05-07T09:44:13;18.40;99.90
23405;DHT22;11875;49.356;2.718;2023-05-07T09:46:42;18.40;99.90
23405;DHT22;11875;49.356;2.718;2023-05-07T09:49:13;18.50;99.90
23405;DHT22;11875;49.356;2.718;2023-05-07T09:51:48;18.60;99.90
23405;DHT22;11875;49.356;2.718;2023-05-07T09:54:15;18.70;99.90
23405;DHT22;11875;49.356;2.718;2023-05-07T09:56:42;18.80;99.90
23405;DHT22;11875;49.356;2.718;2023-05-07T09:59:08;18.80;99.90
23405;DHT22;11875;49.356;2.718;2023-05-07T10:01:36;18.80;99.90
23405;DHT22;11875;49.356;2.718;2023-05-07T10:04:03;18.90;99.90
23405;DHT22;11875;49.356;2.718;2023-05-07T10:06:30;18.80;99.90
23405;DHT22;11875;49.356;2.718;2023-05-07T10:08:56;18.80;99.90
23405;DHT22;11875;49.356;2.718;2023-05-07T10:11:23;18.90;99.90
23405;DHT22;11875;49.356;2.718;2023-05-07T10:13:48;18.90;99.90
23405;DHT22;11875;49.356;2.718;2023-05-07T10:16:14;18.90;99.90
23405;DHT22;11875;49.356;2.718;2023-05-07T10:18:41;18.90;99.90
23405;DHT22;11875;49.356;2.718;2023-05-07T10:21:18;18.90;99.90
23405;DHT22;11875;49.356;2.718;2023-05-07T10:23:51;19.00;99.90
23405;DHT22;11875;49.356;2.718;2023-05-07T10:26:20;19.10;99.90
23405;DHT22;11875;49.356;2.718;2023-05-07T10:28:50;19.30;99.90
23405;DHT22;11875;49.356;2.718;2023-05-07T10:31:23;19.30;99.90
23405;DHT22;11875;49.356;2.718;2023-05-07T10:33:56;19.40;99.90
23405;DHT22;11875;49.356;2.718;2023-05-07T10:36:22;19.30;99.90
23405;DHT22;11875;49.356;2.718;2023-05-07T10:38:49;19.40;99.90
23405;DHT22;11875;49.356;2.718;2023-05-07T10:41:15;19.60;99.90
23405;DHT22;11875;49.356;2.718;2023-05-07T10:43:43;19.50;99.90
23405;DHT22;11875;49.356;2.718;2023-05-07T10:51:32;19.40;99.90
23405;DHT22;11875;49.356;2.718;2023-05-07T10:56:35;19.40;99.90
23405;DHT22;11875;49.356;2.718;2023-05-07T11:01:54;19.60;99.90
23405;DHT22;11875;49.356;2.718;2023-05-07T11:04:20;19.50;99.90
23405;DHT22;11875;49.356;2.718;2023-05-07T11:15:12;19.50;99.90
23405;DHT22;11875;49.356;2.718;2023-05-07T11:20:21;19.60;99.90
23405;DHT22;11875;49.356;2.718;2023-05-07T11:22:47;19.50;99.90
23405;DHT22;11875;49.356;2.718;2023-05-07T11:25:19;19.60;99.90
23405;DHT22;11875;49.356;2.718;2023-05-07T11:27:44;19.50;99.90
23405;DHT22;11875;49.356;2.718;2023-05-07T11:30:17;19.60;99.90
23405;DHT22;11875;49.356;2.718;2023-05-07T11:32:47;19.80;99.90
23405;DHT22;11875;49.356;2.718;2023-05-07T11:35:15;19.80;99.90
23405;DHT22;11875;49.356;2.718;2023-05-07T11:37:41;20.00;99.90
23405;DHT22;11875;49.356;2.718;2023-05-07T11:40:08;20.10;99.90
23405;DHT22;11875;49.356;2.718;2023-05-07T11:42:37;20.30;99.90
23405;DHT22;11875;49.356;2.718;2023-05-07T11:45:04;20.10;99.90
23405;DHT22;11875;49.356;2.718;2023-05-07T11:47:31;20.10;99.90
23405;DHT22;11875;49.356;2.718;2023-05-07T11:49:56;20.30;99.90
23405;DHT22;11875;49.356;2.718;2023-05-07T11:52:27;20.40;99.90
23405;DHT22;11875;49.356;2.718;2023-05-07T11:54:57;20.50;99.90
23405;DHT22;11875;49.356;2.718;2023-05-07T11:57:24;20.70;99.90
23405;DHT22;11875;49.356;2.718;2023-05-07T11:59:57;20.80;99.90
23405;DHT22;11875;49.356;2.718;2023-05-07T12:02:24;21.10;99.90
23405;DHT22;11875;49.356;2.718;2023-05-07T12:04:50;21.20;99.90
23405;DHT22;11875;49.356;2.718;2023-05-07T12:07:17;21.30;99.90
23405;DHT22;11875;49.356;2.718;2023-05-07T12:09:44;21.40;99.90
23405;DHT22;11875;49.356;2.718;2023-05-07T12:12:10;21.50;99.90
23405;DHT22;11875;49.356;2.718;2023-05-07T12:14:40;21.60;99.90
23405;DHT22;11875;49.356;2.718;2023-05-07T12:17:07;21.60;99.90
23405;DHT22;11875;49.356;2.718;2023-05-07T12:19:34;21.50;99.90
23405;DHT22;11875;49.356;2.718;2023-05-07T12:22:02;21.50;99.90
23405;DHT22;11875;49.356;2.718;2023-05-07T12:24:28;21.60;99.90
23405;DHT22;11875;49.356;2.718;2023-05-07T12:26:53;21.50;99.90
23405;DHT22;11875;49.356;2.718;2023-05-07T12:29:22;21.30;99.90
23405;DHT22;11875;49.356;2.718;2023-05-07T12:31:49;21.20;99.90
23405;DHT22;11875;49.356;2.718;2023-05-07T12:34:15;21.30;99.90
23405;DHT22;11875;49.356;2.718;2023-05-07T12:36:41;21.30;99.90
23405;DHT22;11875;49.356;2.718;2023-05-07T12:39:07;21.40;99.90
23405;DHT22;11875;49.356;2.718;2023-05-07T12:41:54;21.40;99.90
23405;DHT22;11875;49.356;2.718;2023-05-07T12:44:24;21.50;99.90
23405;DHT22;11875;49.356;2.718;2023-05-07T12:46:51;21.50;99.90
23405;DHT22;11875;49.356;2.718;2023-05-07T12:49:17;21.50;99.90
23405;DHT22;11875;49.356;2.718;2023-05-07T12:51:49;21.50;99.90
23405;DHT22;11875;49.356;2.718;2023-05-07T12:54:31;21.30;99.90
23405;DHT22;11875;49.356;2.718;2023-05-07T12:57:08;21.20;99.90
23405;DHT22;11875;49.356;2.718;2023-05-07T12:59:37;21.20;99.90
23405;DHT22;11875;49.356;2.718;2023-05-07T13:02:03;21.10;99.90
23405;DHT22;11875;49.356;2.718;2023-05-07T13:04:29;21.00;99.90
23405;DHT22;11875;49.356;2.718;2023-05-07T13:06:54;21.10;99.90
23405;DHT22;11875;49.356;2.718;2023-05-07T13:09:20;21.10;99.90
23405;DHT22;11875;49.356;2.718;2023-05-07T13:11:45;21.20;99.90
23405;DHT22;11875;49.356;2.718;2023-05-07T13:14:11;21.20;99.90
23405;DHT22;11875;49.356;2.718;2023-05-07T13:16:37;21.30;99.90
23405;DHT22;11875;49.356;2.718;2023-05-07T13:19:02;21.30;99.90
23405;DHT22;11875;49.356;2.718;2023-05-07T13:21:28;21.50;99.90
23405;DHT22;11875;49.356;2.718;2023-05-07T13:23:53;21.60;99.90
23405;DHT22;11875;49.356;2.718;2023-05-07T13:26:19;21.70;99.90
23405;DHT22;11875;49.356;2.718;2023-05-07T13:28:45;21.70;99.90
23405;DHT22;11875;49.356;2.718;2023-05-07T13:31:11;21.70;99.90
23405;DHT22;11875;49.356;2.718;2023-05-07T13:33:37;21.80;99.90
23405;DHT22;11875;49.356;2.718;2023-05-07T13:36:03;21.80;99.90
23405;DHT22;11875;49.356;2.718;2023-05-07T13:38:30;21.90;99.90
23405;DHT22;11875;49.356;2.718;2023-05-07T13:40:56;21.90;99.90
23405;DHT22;11875;49.356;2.718;2023-05-07T13:43:22;22.00;99.90
23405;DHT22;11875;49.356;2.718;2023-05-07T13:45:47;22.10;99.90
23405;DHT22;11875;49.356;2.718;2023-05-07T13:48:13;22.10;99.90
23405;DHT22;11875;49.356;2.718;2023-05-07T13:50:38;22.10;99.90
23405;DHT22;11875;49.356;2.718;2023-05-07T13:53:04;22.10;99.90
23405;DHT22;11875;49.356;2.718;2023-05-07T13:55:30;22.00;99.90
23405;DHT22;11875;49.356;2.718;2023-05-07T13:57:57;22.00;99.90
23405;DHT22;11875;49.356;2.718;2023-05-07T14:00:24;22.00;99.90
23405;DHT22;11875;49.356;2.718;2023-05-07T14:02:50;22.00;99.90
23405;DHT22;11875;49.356;2.718;2023-05-07T14:05:16;21.90;99.90
23405;DHT22;11875;49.356;2.718;2023-05-07T14:07:41;21.80;99.90
23405;DHT22;11875;49.356;2.718;2023-05-07T14:10:07;21.70;99.90
23405;DHT22;11875;49.356;2.718;2023-05-07T14:12:33;21.70;99.90
23405;DHT22;11875;49.356;2.718;2023-05-07T14:14:59;21.60;99.90
23405;DHT22;11875;49.356;2.718;2023-05-07T14:17:25;21.60;99.90
23405;DHT22;11875;49.356;2.718;2023-05-07T14:19:52;21.50;99.90
23405;DHT22;11875;49.356;2.718;2023-05-07T14:22:20;21.50;99.90
23405;DHT22;11875;49.356;2.718;2023-05-07T14:24:47;21.50;99.90
23405;DHT22;11875;49.356;2.718;2023-05-07T14:27:12;21.50;99.90
23405;DHT22;11875;49.356;2.718;2023-05-07T14:29:38;21.40;99.90
23405;DHT22;11875;49.356;2.718;2023-05-07T14:32:03;21.10;99.90
23405;DHT22;11875;49.356;2.718;2023-05-07T14:34:29;21.00;99.90
23405;DHT22;11875;49.356;2.718;2023-05-07T14:36:55;21.00;99.90
23405;DHT22;11875;49.356;2.718;2023-05-07T14:39:21;20.90;99.90
23405;DHT22;11875;49.356;2.718;2023-05-07T14:41:47;21.00;99.90
23405;DHT22;11875;49.356;2.718;2023-05-07T14:44:12;21.10;99.90
23405;DHT22;11875;49.356;2.718;2023-05-07T14:46:38;21.30;99.90
23405;DHT22;11875;49.356;2.718;2023-05-07T14:49:03;21.30;99.90
23405;DHT22;11875;49.356;2.718;2023-05-07T14:51:29;21.40;99.90
23405;DHT22;11875;49.356;2.718;2023-05-07T14:53:56;21.50;99.90
23405;DHT22;11875;49.356;2.718;2023-05-07T14:56:22;21.60;99.90
23405;DHT22;11875;49.356;2.718;2023-05-07T14:58:48;21.70;99.90
23405;DHT22;11875;49.356;2.718;2023-05-07T15:01:14;21.90;99.90
23405;DHT22;11875;49.356;2.718;2023-05-07T15:03:40;22.10;99.90
23405;DHT22;11875;49.356;2.718;2023-05-07T15:06:06;22.20;99.90
23405;DHT22;11875;49.356;2.718;2023-05-07T15:08:31;22.10;99.90
23405;DHT22;11875;49.356;2.718;2023-05-07T15:10:57;22.00;99.90
23405;DHT22;11875;49.356;2.718;2023-05-07T15:13:23;22.20;99.90
23405;DHT22;11875;49.356;2.718;2023-05-07T15:15:48;22.40;99.90
23405;DHT22;11875;49.356;2.718;2023-05-07T15:18:15;22.70;99.90
23405;DHT22;11875;49.356;2.718;2023-05-07T15:20:41;22.80;99.90
23405;DHT22;11875;49.356;2.718;2023-05-07T15:23:08;22.80;99.90
23405;DHT22;11875;49.356;2.718;2023-05-07T15:25:40;22.80;99.90
23405;DHT22;11875;49.356;2.718;2023-05-07T15:28:06;22.70;99.90
23405;DHT22;11875;49.356;2.718;2023-05-07T15:30:32;22.60;99.90
23405;DHT22;11875;49.356;2.718;2023-05-07T15:32:58;22.50;99.90
23405;DHT22;11875;49.356;2.718;2023-05-07T15:35:24;22.60;99.90
23405;DHT22;11875;49.356;2.718;2023-05-07T15:37:51;22.70;99.90
23405;DHT22;11875;49.356;2.718;2023-05-07T15:40:17;22.80;99.90
23405;DHT22;11875;49.356;2.718;2023-05-07T15:42:44;23.00;99.90
23405;DHT22;11875;49.356;2.718;2023-05-07T15:45:10;23.00;99.90
23405;DHT22;11875;49.356;2.718;2023-05-07T15:47:36;23.10;99.90